createdAt,value
2022-12-03T00:03:02.940Z,63.65
2022-12-03T00:07:19.113Z,62.36
2022-12-03T00:11:35.292Z,63.60
2022-12-03T00:15:51.522Z,62.92
2022-12-03T00:20:09.797Z,62.82
2022-12-03T00:24:25.955Z,63.49
2022-12-03T00:28:42.176Z,63.70
2022-12-03T00:32:58.372Z,63.27
2022-12-03T00:37:14.576Z,62.14
2022-12-03T00:41:30.677Z,63.76
2022-12-03T00:45:46.818Z,62.68
2022-12-03T00:50:03.019Z,62.73
2022-12-03T00:54:19.214Z,62.87
2022-12-03T00:58:35.419Z,62.43
2022-12-03T01:02:52.960Z,62.44
2022-12-03T01:07:09.765Z,62.21
2022-12-03T01:11:37.788Z,62.04
2022-12-03T01:15:54.166Z,62.03
2022-12-03T01:20:11.222Z,62.25
2022-12-03T01:24:27.623Z,62.65
2022-12-03T01:28:43.846Z,62.12
2022-12-03T01:33:00.045Z,61.67
2022-12-03T01:37:16.783Z,62.36
2022-12-03T01:41:33.717Z,61.81
2022-12-03T01:45:49.840Z,63.04
2022-12-03T01:50:16.982Z,62.07
2022-12-03T01:54:41.652Z,63.51
2022-12-03T01:58:57.910Z,62.98
2022-12-03T02:03:22.672Z,62.94
2022-12-03T02:07:38.797Z,64.57
2022-12-03T02:11:55.032Z,62.97
2022-12-03T02:16:11.346Z,63.76
2022-12-03T02:20:27.711Z,63.88
2022-12-03T02:24:56.095Z,64.17
2022-12-03T02:29:12.434Z,64.00
2022-12-03T02:33:28.719Z,63.72
2022-12-03T02:37:46.330Z,64.83
2022-12-03T02:42:21.611Z,63.36
2022-12-03T02:46:37.969Z,64.10
2022-12-03T02:51:00.629Z,63.51
2022-12-03T02:55:17.841Z,63.95
2022-12-03T02:59:34.217Z,63.94
2022-12-03T03:03:50.816Z,63.98
2022-12-03T03:08:09.072Z,64.22
2022-12-03T03:12:25.368Z,64.22
2022-12-03T03:16:41.749Z,63.73
2022-12-03T03:21:01.117Z,63.66
2022-12-03T03:25:21.209Z,63.82
2022-12-03T03:29:37.490Z,64.89
2022-12-03T03:33:54.037Z,63.75
2022-12-03T03:38:10.580Z,63.54
2022-12-03T03:42:26.875Z,63.91
2022-12-03T03:46:43.419Z,65.13
2022-12-03T03:50:59.845Z,65.01
2022-12-03T03:55:16.132Z,63.38
2022-12-03T03:59:32.381Z,63.63
2022-12-03T04:03:48.591Z,63.57
2022-12-03T04:08:05.196Z,63.88
2022-12-03T04:12:39.780Z,63.44
2022-12-03T04:16:58.687Z,63.57
2022-12-03T04:21:41.624Z,63.61
2022-12-03T04:26:16.537Z,63.61
2022-12-03T04:30:32.721Z,64.96
2022-12-03T04:35:07.400Z,63.43
2022-12-03T04:39:23.704Z,63.45
2022-12-03T04:43:59.842Z,63.69
2022-12-03T04:48:16.069Z,63.93
2022-12-03T04:52:32.252Z,64.87
2022-12-03T04:56:48.491Z,63.76
2022-12-03T05:01:04.757Z,64.74
2022-12-03T05:05:21.019Z,65.84
2022-12-03T05:09:37.164Z,65.75
2022-12-03T05:13:54.050Z,65.42
2022-12-03T05:18:10.151Z,64.15
2022-12-03T05:22:26.308Z,64.31
2022-12-03T05:26:42.438Z,64.36
2022-12-03T05:30:58.711Z,63.43
2022-12-03T05:35:14.948Z,63.62
2022-12-03T05:39:31.144Z,63.30
2022-12-03T05:43:47.290Z,63.10
2022-12-03T05:48:04.874Z,63.82
2022-12-03T05:52:20.948Z,63.80
2022-12-03T05:56:37.050Z,62.67
2022-12-03T06:00:53.125Z,62.77
2022-12-03T06:05:11.313Z,64.43
2022-12-03T06:09:27.560Z,64.75
2022-12-03T06:13:43.680Z,63.95
2022-12-03T06:17:59.829Z,63.70
2022-12-03T06:22:19.501Z,63.48
2022-12-03T06:26:35.661Z,63.15
2022-12-03T06:30:51.872Z,63.09
2022-12-03T06:35:08.514Z,62.50
2022-12-03T06:39:24.644Z,62.81
2022-12-03T06:43:40.761Z,63.55
2022-12-03T06:47:57.005Z,63.32
2022-12-03T06:52:13.151Z,63.02
2022-12-03T06:56:35.041Z,62.33
2022-12-03T07:00:53.219Z,63.66
2022-12-03T07:05:09.978Z,62.25
2022-12-03T07:09:26.118Z,62.56
2022-12-03T07:13:42.327Z,62.67
2022-12-03T07:17:58.553Z,62.16
2022-12-03T07:22:14.700Z,61.70
2022-12-03T07:26:30.885Z,62.03
2022-12-03T07:30:47.110Z,63.15
2022-12-03T07:35:07.394Z,63.07
2022-12-03T07:39:23.566Z,62.21
2022-12-03T07:43:39.625Z,67.19
2022-12-03T07:47:55.769Z,64.49
2022-12-03T07:52:11.953Z,60.26
2022-12-03T07:56:28.108Z,61.29
2022-12-03T08:00:44.430Z,62.72
2022-12-03T08:05:00.655Z,62.08
2022-12-03T08:09:16.849Z,63.35
2022-12-03T08:13:33.947Z,60.64
2022-12-03T08:17:56.957Z,59.93
2022-12-03T08:22:16.891Z,59.55
2022-12-03T08:26:32.997Z,59.63
2022-12-03T08:31:20.374Z,60.02
2022-12-03T08:35:36.526Z,59.92
2022-12-03T08:39:54.922Z,60.30
2022-12-03T08:44:36.733Z,60.05
2022-12-03T08:48:52.904Z,62.00
2022-12-03T08:53:09.011Z,60.46
2022-12-03T08:57:30.518Z,60.87
2022-12-03T09:01:49.025Z,59.78
2022-12-03T09:06:05.659Z,60.05
2022-12-03T09:10:21.829Z,59.68
2022-12-03T09:14:38.107Z,60.54
2022-12-03T09:18:54.238Z,59.58
2022-12-03T09:23:10.424Z,60.46
2022-12-03T09:27:26.691Z,61.47
2022-12-03T09:31:42.948Z,60.37
2022-12-03T09:36:00.005Z,60.70
2022-12-03T09:40:16.316Z,60.78
2022-12-03T09:44:34.477Z,60.50
2022-12-03T09:48:51.033Z,59.90
2022-12-03T09:53:07.385Z,60.18
2022-12-03T09:57:23.899Z,61.03
2022-12-03T10:01:40.291Z,61.68
2022-12-03T10:05:56.692Z,60.08
2022-12-03T10:10:23.690Z,59.53
2022-12-03T10:14:40.543Z,59.36
2022-12-03T10:18:59.731Z,60.00
2022-12-03T10:23:26.882Z,60.26
2022-12-03T10:27:43.609Z,59.71
2022-12-03T10:32:12.963Z,59.89
2022-12-03T10:36:29.073Z,59.40
2022-12-03T10:40:46.097Z,60.16
2022-12-03T10:45:22.793Z,58.58
2022-12-03T10:49:39.595Z,58.54
2022-12-03T10:53:55.673Z,58.25
2022-12-03T10:58:32.188Z,59.66
2022-12-03T11:02:54.900Z,58.24
2022-12-03T11:07:15.649Z,60.31
2022-12-03T11:11:32.099Z,58.83
2022-12-03T11:15:48.722Z,59.68
2022-12-03T11:20:05.727Z,58.33
2022-12-03T11:24:22.093Z,59.38
2022-12-03T11:28:47.274Z,59.23
2022-12-03T11:33:03.417Z,57.98
2022-12-03T11:37:19.547Z,58.47
2022-12-03T11:41:36.002Z,59.97
2022-12-03T11:45:52.374Z,58.10
2022-12-03T11:50:37.619Z,57.87
2022-12-03T11:55:16.291Z,57.39
2022-12-03T11:59:32.462Z,58.02
2022-12-03T12:03:50.286Z,57.47
2022-12-03T12:08:18.332Z,56.50
2022-12-03T12:12:54.393Z,56.51
2022-12-03T12:17:31.071Z,56.71
2022-12-03T12:21:50.520Z,56.62
2022-12-03T12:26:07.708Z,56.20
2022-12-03T12:30:24.270Z,55.95
2022-12-03T12:34:42.084Z,56.83
2022-12-03T12:38:59.925Z,56.34
2022-12-03T12:43:23.495Z,56.74
2022-12-03T12:47:44.021Z,56.95
2022-12-03T12:52:01.388Z,55.88
2022-12-03T12:56:31.856Z,55.71
2022-12-03T13:00:59.961Z,55.70
2022-12-03T13:05:16.447Z,56.92
2022-12-03T13:09:33.102Z,55.22
2022-12-03T13:13:49.259Z,56.09
2022-12-03T13:18:23.852Z,56.22
2022-12-03T13:22:40.094Z,55.96
2022-12-03T13:26:56.763Z,55.25
2022-12-03T13:31:33.886Z,55.12
2022-12-03T13:35:52.966Z,54.73
2022-12-03T13:40:21.983Z,55.98
2022-12-03T13:44:43.240Z,54.84
2022-12-03T13:49:01.905Z,56.72
2022-12-03T13:53:22.280Z,55.72
2022-12-03T13:57:38.351Z,56.59
2022-12-03T14:01:54.540Z,55.68
2022-12-03T14:06:10.757Z,55.08
2022-12-03T14:10:26.929Z,55.96
2022-12-03T14:14:43.095Z,55.74
2022-12-03T14:18:59.275Z,56.24
2022-12-03T14:23:15.870Z,56.17
2022-12-03T14:27:32.062Z,55.62
2022-12-03T14:31:48.214Z,56.30
2022-12-03T14:36:04.553Z,56.24
2022-12-03T14:40:21.862Z,56.89
2022-12-03T14:44:38.732Z,56.29
2022-12-03T14:48:54.817Z,56.50
2022-12-03T14:53:11.003Z,56.40
2022-12-03T14:57:27.164Z,56.54
2022-12-03T15:01:43.427Z,56.17
2022-12-03T15:06:00.827Z,56.48
2022-12-03T15:10:17.043Z,55.78
2022-12-03T15:14:33.348Z,55.50
2022-12-03T15:18:49.885Z,58.36
2022-12-03T15:23:08.880Z,57.07
2022-12-03T15:27:28.981Z,56.87
2022-12-03T15:31:45.203Z,58.17
2022-12-03T15:36:01.361Z,56.98
2022-12-03T15:40:17.558Z,57.41
2022-12-03T15:44:33.668Z,57.31
2022-12-03T15:48:50.091Z,56.88
2022-12-03T15:53:06.328Z,56.79
2022-12-03T15:57:23.402Z,56.78
2022-12-03T16:01:44.748Z,56.83
2022-12-03T16:06:30.670Z,56.53
2022-12-03T16:10:52.534Z,56.86
2022-12-03T16:15:16.585Z,56.66
2022-12-03T16:19:35.536Z,57.36
2022-12-03T16:23:52.206Z,57.63
2022-12-03T16:28:09.483Z,57.49
2022-12-03T16:32:25.578Z,56.85
2022-12-03T16:36:41.639Z,56.73
2022-12-03T16:40:57.759Z,57.46
2022-12-03T16:45:36.786Z,57.32
2022-12-03T16:49:53.087Z,56.95
2022-12-03T16:54:09.406Z,57.84
2022-12-03T16:58:25.532Z,57.74
2022-12-03T17:02:41.661Z,58.10
2022-12-03T17:06:57.897Z,58.67
2022-12-03T17:11:14.186Z,58.34
2022-12-03T17:15:31.842Z,58.15
2022-12-03T17:19:53.984Z,58.73
2022-12-03T17:24:11.358Z,59.22
2022-12-03T17:28:30.234Z,59.43
2022-12-03T17:32:46.955Z,59.53
2022-12-03T17:37:10.911Z,59.25
2022-12-03T17:41:29.039Z,59.45
2022-12-03T17:45:46.410Z,59.17
2022-12-03T17:50:02.876Z,59.26
2022-12-03T17:54:19.015Z,59.18
2022-12-03T17:58:35.100Z,59.84
2022-12-03T18:02:53.222Z,60.36
2022-12-03T18:07:09.341Z,59.36
2022-12-03T18:11:25.644Z,60.05
2022-12-03T18:15:41.784Z,60.86
2022-12-03T18:19:58.304Z,60.22
2022-12-03T18:24:14.659Z,60.50
2022-12-03T18:28:33.647Z,59.65
2022-12-03T18:32:50.808Z,59.32
2022-12-03T18:37:06.913Z,59.41
2022-12-03T18:41:26.321Z,59.34
2022-12-03T18:45:43.106Z,59.92
2022-12-03T18:50:02.069Z,60.32
2022-12-03T18:54:19.040Z,59.50
2022-12-03T18:58:36.030Z,59.38
2022-12-03T19:03:02.898Z,59.12
2022-12-03T19:07:21.080Z,59.59
2022-12-03T19:11:39.769Z,59.09
2022-12-03T19:15:56.387Z,58.89
2022-12-03T19:20:13.091Z,57.88
2022-12-03T19:24:30.733Z,58.08
2022-12-03T19:28:48.072Z,58.50
2022-12-03T19:33:04.659Z,59.59
2022-12-03T19:37:20.746Z,59.74
2022-12-03T19:41:36.900Z,59.99
2022-12-03T19:45:54.213Z,59.37
2022-12-03T19:50:11.454Z,60.58
2022-12-03T19:54:28.250Z,59.98
2022-12-03T19:58:53.312Z,59.25
2022-12-03T20:03:10.190Z,60.16
2022-12-03T20:07:31.208Z,59.09
2022-12-03T20:11:51.098Z,59.41
2022-12-03T20:16:09.130Z,59.55
2022-12-03T20:20:25.327Z,59.08
2022-12-03T20:24:41.504Z,59.93
2022-12-03T20:28:58.714Z,59.96
2022-12-03T20:33:14.763Z,58.93
2022-12-03T20:37:32.234Z,59.35
2022-12-03T20:41:48.631Z,58.85
2022-12-03T20:46:22.075Z,59.26
2022-12-03T20:50:41.769Z,59.50
2022-12-03T20:54:58.552Z,59.72
2022-12-03T20:59:26.129Z,58.99
2022-12-03T21:03:42.430Z,58.23
2022-12-03T21:07:58.646Z,59.02
2022-12-03T21:12:14.791Z,59.14
2022-12-03T21:17:06.121Z,59.04
2022-12-03T21:21:11.710Z,58.05
2022-12-03T21:25:27.793Z,58.28
2022-12-03T21:29:43.917Z,58.70
2022-12-03T21:34:00.114Z,58.98
2022-12-03T21:38:16.344Z,59.44
2022-12-03T21:42:35.970Z,59.24
2022-12-03T21:47:10.205Z,59.52
2022-12-03T21:51:29.818Z,59.05
2022-12-03T21:55:46.000Z,58.73
2022-12-03T22:00:03.468Z,58.56
2022-12-03T22:04:31.010Z,58.84
2022-12-03T22:08:47.166Z,58.30
2022-12-03T22:13:03.322Z,58.87
2022-12-03T22:17:19.493Z,59.00
2022-12-03T22:21:35.825Z,59.65
2022-12-03T22:26:03.160Z,58.54
2022-12-03T22:30:19.432Z,58.57
2022-12-03T22:34:35.601Z,59.10
2022-12-03T22:38:52.174Z,58.47
2022-12-03T22:43:08.278Z,58.44
2022-12-03T22:47:24.488Z,58.20
2022-12-03T22:51:40.649Z,58.48
2022-12-03T22:55:58.294Z,58.18
2022-12-03T23:00:15.168Z,58.82
2022-12-03T23:04:34.487Z,59.12
2022-12-03T23:08:51.215Z,59.06
2022-12-03T23:13:08.729Z,58.62
2022-12-03T23:17:28.221Z,58.64
2022-12-03T23:21:44.417Z,59.23
2022-12-03T23:26:06.852Z,59.26
2022-12-03T23:30:23.065Z,59.26
2022-12-03T23:34:39.297Z,58.38
2022-12-03T23:38:55.791Z,58.27
2022-12-03T23:43:11.884Z,59.04
2022-12-03T23:47:28.192Z,58.80
2022-12-03T23:51:44.383Z,58.29
2022-12-03T23:56:00.517Z,58.48
